Observation data for Pampa on 09/12/2017      Previous  Date       Current Mesonet Observations  Soil Data  Daily Summary Page  Observations in Plain Language
KPMS 120500Z 16008KT 18/12 A3013 RMK A01 T01770121  RH  071%=      5-min Rain = 0
KPMS 120505Z 16007KT 18/12 A3013 RMK A01 T01760121  RH  071%=      5-min Rain = 0
KPMS 120510Z 15006KT 18/12 A3013 RMK A01 T01750120  RH  072%=      5-min Rain = 0
KPMS 120515Z 15006KT 17/12 A3013 RMK A01 T01720120  RH  073%=      5-min Rain = 0
KPMS 120520Z 15006KT 17/12 A3013 RMK A01 T01700119  RH  074%=      5-min Rain = 0
KPMS 120525Z 15006KT 17/12 A3013 RMK A01 T01670119  RH  075%=      5-min Rain = 0
KPMS 120530Z 16006KT 17/12 A3013 RMK A01 T01650118  RH  075%=      5-min Rain = 0
KPMS 120535Z 16007KT 17/12 A3013 RMK A01 T01650119  RH  075%=      5-min Rain = 0
KPMS 120540Z 16007KT 17/12 A3013 RMK A01 T01650118  RH  075%=      5-min Rain = 0
KPMS 120545Z 16007KT 17/12 A3013 RMK A01 T01650118  RH  075%=      5-min Rain = 0
KPMS 120550Z 17007KT 17/12 A3013 RMK A01 T01660118  RH  075%=      5-min Rain = 0
KPMS 120555Z 16007KT 17/12 A3013 RMK A01 T01660118  RH  075%=      5-min Rain = 0
KPMS 120600Z 16007KT 17/12 A3012 RMK A01 T01650118  RH  075%=      5-min Rain = 0
KPMS 120605Z 16007KT 17/12 A3012 RMK A01 T01650118  RH  075%=      5-min Rain = 0
KPMS 120610Z 16007KT 16/12 A3012 RMK A01 T01640117  RH  075%=      5-min Rain = 0
KPMS 120615Z 16007KT 16/12 A3012 RMK A01 T01630117  RH  076%=      5-min Rain = 0
KPMS 120620Z 17007KT 17/12 A3012 RMK A01 T01670117  RH  074%=      5-min Rain = 0
KPMS 120625Z 17007KT 17/12 A3012 RMK A01 T01680117  RH  073%=      5-min Rain = 0
KPMS 120630Z 16007KT 16/12 A3012 RMK A01 T01640116  RH  075%=      5-min Rain = 0
KPMS 120635Z 17007KT 16/12 A3012 RMK A01 T01610116  RH  076%=      5-min Rain = 0
KPMS 120640Z 18007KT 16/12 A3012 RMK A01 T01630117  RH  076%=      5-min Rain = 0
KPMS 120645Z 17007KT 17/12 A3012 RMK A01 T01660116  RH  074%=      5-min Rain = 0
KPMS 120650Z 17007KT 17/12 A3011 RMK A01 T01680116  RH  073%=      5-min Rain = 0
KPMS 120655Z 17007KT 17/12 A3011 RMK A01 T01690116  RH  072%=      5-min Rain = 0
KPMS 120700Z 18007KT 17/12 A3011 RMK A01 T01710116  RH  071%=      5-min Rain = 0
KPMS 120705Z 18007KT 17/12 A3011 RMK A01 T01730115  RH  070%=      5-min Rain = 0
KPMS 120710Z 18007KT 18/12 A3011 RMK A01 T01750115  RH  069%=      5-min Rain = 0
KPMS 120715Z 18007KT 17/12 A3011 RMK A01 T01730115  RH  070%=      5-min Rain = 0
KPMS 120720Z 18007KT 17/12 A3011 RMK A01 T01710115  RH  071%=      5-min Rain = 0
KPMS 120725Z 18007KT 17/11 A3011 RMK A01 T01700114  RH  071%=      5-min Rain = 0
KPMS 120730Z 18006KT 17/11 A3011 RMK A01 T01690114  RH  071%=      5-min Rain = 0
KPMS 120735Z 18007KT 17/11 A301 RMK A01 T01680114  RH  072%=      5-min Rain = 0
KPMS 120740Z 18007KT 17/11 A301 RMK A01 T01700114  RH  071%=      5-min Rain = 0
KPMS 120745Z 19007KT 17/12 A3011 RMK A01 T01710115  RH  071%=      5-min Rain = 0
KPMS 120750Z 19008KT 17/11 A3011 RMK A01 T01740114  RH  069%=      5-min Rain = 0
KPMS 120755Z 19007KT 17/11 A3011 RMK A01 T01740114  RH  069%=      5-min Rain = 0
KPMS 120800Z 19007KT 17/12 A3011 RMK A01 T01710115  RH  071%=      5-min Rain = 0
KPMS 120805Z 20006KT 17/11 A3011 RMK A01 T01700114  RH  071%=      5-min Rain = 0
KPMS 120810Z 20005KT 17/11 A3011 RMK A01 T01690114  RH  071%=      5-min Rain = 0
KPMS 120815Z 19006KT 17/11 A3011 RMK A01 T01670114  RH  072%=      5-min Rain = 0
KPMS 120820Z 20006KT 17/11 A301 RMK A01 T01690114  RH  071%=      5-min Rain = 0
KPMS 120825Z 20007KT 17/11 A301 RMK A01 T01730113  RH  069%=      5-min Rain = 0
KPMS 120830Z 19008KT 18/11 A301 RMK A01 T01750114  RH  068%=      5-min Rain = 0
KPMS 120835Z 19008KT 17/11 A301 RMK A01 T01740114  RH  069%=      5-min Rain = 0
KPMS 120840Z 19008KT 17/11 A301 RMK A01 T01710113  RH  070%=      5-min Rain = 0
KPMS 120845Z 18007KT 17/11 A301 RMK A01 T01690113  RH  071%=      5-min Rain = 0
KPMS 120850Z 18007KT 17/11 A301 RMK A01 T01670113  RH  072%=      5-min Rain = 0
KPMS 120855Z 19007KT 17/11 A301 RMK A01 T01680113  RH  071%=      5-min Rain = 0
KPMS 120900Z 19007KT 17/11 A301 RMK A01 T01710112  RH  070%=      5-min Rain = 0
KPMS 120905Z 19008KT 17/11 A301 RMK A01 T01740112  RH  068%=      5-min Rain = 0
KPMS 120910Z 19007KT 17/11 A3009 RMK A01 T01720113  RH  069%=      5-min Rain = 0
KPMS 120915Z 19007KT 17/11 A3009 RMK A01 T01700112  RH  070%=      5-min Rain = 0
KPMS 120920Z 18007KT 17/11 A3009 RMK A01 T01710112  RH  069%=      5-min Rain = 0
KPMS 120925Z 19007KT 17/11 A3009 RMK A01 T01690112  RH  070%=      5-min Rain = 0
KPMS 120930Z 19007KT 17/11 A3009 RMK A01 T01680112  RH  071%=      5-min Rain = 0
KPMS 120935Z 18007KT 17/11 A3009 RMK A01 T01680112  RH  071%=      5-min Rain = 0
KPMS 120940Z 19007KT 17/11 A3009 RMK A01 T01660111  RH  071%=      5-min Rain = 0
KPMS 120945Z 19007KT 17/11 A3009 RMK A01 T01650112  RH  072%=      5-min Rain = 0
KPMS 120950Z 19007KT 17/11 A3009 RMK A01 T01670111  RH  071%=      5-min Rain = 0
KPMS 120955Z 19006KT 17/11 A3009 RMK A01 T01650110  RH  071%=      5-min Rain = 0
KPMS 121000Z 19006KT 17/11 A3009 RMK A01 T01650111  RH  072%=      5-min Rain = 0
KPMS 121005Z 18007KT 17/11 A3009 RMK A01 T01680111  RH  070%=      5-min Rain = 0
KPMS 121010Z 17006KT 16/11 A3009 RMK A01 T01610109  RH  072%=      5-min Rain = 0
KPMS 121015Z 17007KT 15/11 A3008 RMK A01 T01490108  RH  078%=      5-min Rain = 0
KPMS 121020Z 18006KT 15/11 A3008 RMK A01 T01490108  RH  078%=      5-min Rain = 0
KPMS 121025Z 18006KT 16/11 A3008 RMK A01 T01560109  RH  075%=      5-min Rain = 0
KPMS 121030Z 18006KT 16/11 A3008 RMK A01 T01620109  RH  072%=      5-min Rain = 0
KPMS 121035Z 18006KT 16/11 A3008 RMK A01 T01620108  RH  072%=      5-min Rain = 0
KPMS 121040Z 18006KT 16/11 A3008 RMK A01 T01580108  RH  073%=      5-min Rain = 0
KPMS 121045Z 19006KT 16/11 A3008 RMK A01 T01590109  RH  073%=      5-min Rain = 0
KPMS 121050Z 20006KT 17/11 A3008 RMK A01 T01650109  RH  071%=      5-min Rain = 0
KPMS 121055Z 20007KT 17/11 A3008 RMK A01 T01680109  RH  070%=      5-min Rain = 0
KPMS 121100Z 20006KT 17/11 A3008 RMK A01 T01660110  RH  071%=      5-min Rain = 0
KPMS 121105Z 20006KT 16/11 A3008 RMK A01 T01630110  RH  072%=      5-min Rain = 0
KPMS 121110Z 19006KT 16/11 A3008 RMK A01 T01620109  RH  072%=      5-min Rain = 0
KPMS 121115Z 19004KT 16/11 A3008 RMK A01 T01630108  RH  071%=      5-min Rain = 0
KPMS 121120Z 19005KT 16/11 A3008 RMK A01 T01550107  RH  074%=      5-min Rain = 0
KPMS 121125Z 18006KT 15/11 A3008 RMK A01 T01480106  RH  077%=      5-min Rain = 0
KPMS 121130Z 18006KT 15/11 A3008 RMK A01 T01450106  RH  079%=      5-min Rain = 0
KPMS 121135Z 18006KT 14/11 A3008 RMK A01 T01400105  RH  081%=      5-min Rain = 0
KPMS 121140Z 17006KT 14/10 A3008 RMK A01 T01360104  RH  083%=      5-min Rain = 0
KPMS 121145Z 17006KT 14/11 A3008 RMK A01 T01350105  RH  084%=      5-min Rain = 0
KPMS 121150Z 18005KT 14/11 A3008 RMK A01 T01380105  RH  082%=      5-min Rain = 0
KPMS 121155Z 19005KT 14/11 A3008 RMK A01 T01440106  RH  079%=      5-min Rain = 0
KPMS 121200Z 18006KT 15/11 A3008 RMK A01 T01520107  RH  076%=      5-min Rain = 0
KPMS 121205Z 17007KT 16/11 A3008 RMK A01 T01550106  RH  074%=      5-min Rain = 0
KPMS 121210Z 17007KT 15/11 A3008 RMK A01 T01510105  RH  075%=      5-min Rain = 0
KPMS 121215Z 17007KT 15/11 A3008 RMK A01 T01490106  RH  077%=      5-min Rain = 0
KPMS 121220Z 17007KT 15/11 A3008 RMK A01 T01480105  RH  077%=      5-min Rain = 0
KPMS 121225Z 17007KT 15/11 A3008 RMK A01 T01480105  RH  077%=      5-min Rain = 0
KPMS 121230Z 16008KT 15/11 A3008 RMK A01 T01470105  RH  077%=      5-min Rain = 0
KPMS 121235Z 17007KT 15/11 A3008 RMK A01 T01460106  RH  078%=      5-min Rain = 0
KPMS 121240Z 17007KT 15/11 A3008 RMK A01 T01470106  RH  078%=      5-min Rain = 0
KPMS 121245Z 16007KT 15/11 A3008 RMK A01 T01450107  RH  079%=      5-min Rain = 0
KPMS 121250Z 15007KT 15/11 A3008 RMK A01 T01450107  RH  080%=      5-min Rain = 0
KPMS 121255Z 14007KT 15/11 A3008 RMK A01 T01450108  RH  080%=      5-min Rain = 0
KPMS 121300Z 15007KT 15/11 A3008 RMK A01 T01460108  RH  079%=      5-min Rain = 0
KPMS 121305Z 16006KT 15/11 A3008 RMK A01 T01470109  RH  079%=      5-min Rain = 0
KPMS 121310Z 15006KT 15/11 A3008 RMK A01 T01490112  RH  080%=      5-min Rain = 0
KPMS 121315Z 15005KT 15/11 A3008 RMK A01 T01520113  RH  079%=      5-min Rain = 0
KPMS 121320Z 15005KT 16/12 A3008 RMK A01 T01550115  RH  078%=      5-min Rain = 0
KPMS 121325Z 16005KT 16/12 A3008 RMK A01 T01590115  RH  076%=      5-min Rain = 0
KPMS 121330Z 15006KT 16/12 A3008 RMK A01 T01630115  RH  075%=      5-min Rain = 0
KPMS 121335Z 15006KT 17/12 A3008 RMK A01 T01680118  RH  074%=      5-min Rain = 0
KPMS 121340Z 15005KT 17/12 A3008 RMK A01 T01740119  RH  072%=      5-min Rain = 0
KPMS 121345Z 16005KT 18/12 A3008 RMK A01 T01800118  RH  069%=      5-min Rain = 0
KPMS 121350Z 16006KT 19/12 A3008 RMK A01 T01860119  RH  066%=      5-min Rain = 0
KPMS 121355Z 16006KT 19/12 A3008 RMK A01 T01910121  RH  065%=      5-min Rain = 0
KPMS 121400Z 16006KT 20/12 A3008 RMK A01 T01950120  RH  063%=      5-min Rain = 0
KPMS 121405Z 16006KT 20/12 A3008 RMK A01 T01990121  RH  062%=      5-min Rain = 0
KPMS 121410Z 16006KT 20/12 A3008 RMK A01 T02030121  RH  060%=      5-min Rain = 0
KPMS 121415Z 17006KT 21/12 A3008 RMK A01 T02080119  RH  058%=      5-min Rain = 0
KPMS 121420Z 18006KT 21/12 A3008 RMK A01 T02120119  RH  056%=      5-min Rain = 0
KPMS 121425Z 18007KT 22/12 A3008 RMK A01 T02150118  RH  055%=      5-min Rain = 0
KPMS 121430Z 19006KT 22/12 A3008 RMK A01 T02170119  RH  054%=      5-min Rain = 0
KPMS 121435Z 18006KT 22/12 A3008 RMK A01 T02200120  RH  054%=      5-min Rain = 0
KPMS 121440Z 18006KT 22/12 A3008 RMK A01 T02210120  RH  054%=      5-min Rain = 0
KPMS 121445Z 20005KT 23/12 A3008 RMK A01 T02250122  RH  053%=      5-min Rain = 0
KPMS 121450Z 20007KT 23/12 A3007 RMK A01 T02280120  RH  051%=      5-min Rain = 0
KPMS 121455Z 20007KT 23/12 A3007 RMK A01 T02310120  RH  050%=      5-min Rain = 0
KPMS 121500Z 18007KT 24/12 A3007 RMK A01 T02360121  RH  049%=      5-min Rain = 0
KPMS 121505Z 20007KT 24/12 A3007 RMK A01 T02410117  RH  047%=      5-min Rain = 0
KPMS 121510Z 19008KT 25/12 A3007 RMK A01 T02450115  RH  045%=      5-min Rain = 0
KPMS 121515Z 20007KT 25/11 A3007 RMK A01 T02460114  RH  044%=      5-min Rain = 0
KPMS 121520Z 19006KT 25/12 A3007 RMK A01 T02510117  RH  044%=      5-min Rain = 0
KPMS 121525Z 20006KT 25/11 A3007 RMK A01 T02530114  RH  043%=      5-min Rain = 0
KPMS 121530Z 19007KT 26/11 A3007 RMK A01 T02550114  RH  042%=      5-min Rain = 0
KPMS 121535Z 20007KT 26/11 A3007 RMK A01 T02550113  RH  042%=      5-min Rain = 0
KPMS 121540Z 19007KT 26/12 A3007 RMK A01 T02580115  RH  041%=      5-min Rain = 0
KPMS 121545Z 19006KT 26/12 A3007 RMK A01 T02610116  RH  041%=      5-min Rain = 0
KPMS 121550Z 19007KT 26/11 A3007 RMK A01 T02640113  RH  039%=      5-min Rain = 0
KPMS 121555Z 19006KT 27/11 A3007 RMK A01 T02660114  RH  039%=      5-min Rain = 0
KPMS 121600Z 18006KT 27/11 A3007 RMK A01 T02680113  RH  039%=      5-min Rain = 0
KPMS 121605Z 19005KT 27/11 A3007 RMK A01 T02710114  RH  038%=      5-min Rain = 0
KPMS 121610Z 18005KT 27/11 A3007 RMK A01 T02720111  RH  037%=      5-min Rain = 0
KPMS 121615Z 20005KT 27/11 A3007 RMK A01 T02740111  RH  037%=      5-min Rain = 0
KPMS 121620Z 20005KT 28/11 A3007 RMK A01 T02760112  RH  037%=      5-min Rain = 0
KPMS 121625Z 20003KT 28/11 A3007 RMK A01 T02780110  RH  036%=      5-min Rain = 0
KPMS 121630Z 22004KT 28/11 A3006 RMK A01 T02780111  RH  036%=      5-min Rain = 0
KPMS 121635Z 20004KT 28/11 A3006 RMK A01 T02790113  RH  036%=      5-min Rain = 0
KPMS 121640Z 22003KT 28/11 A3006 RMK A01 T02800111  RH  036%=      5-min Rain = 0
KPMS 121645Z 22005KT 28/11 A3006 RMK A01 T02820113  RH  036%=      5-min Rain = 0
KPMS 121650Z 20003KT 28/12 A3006 RMK A01 T02830115  RH  036%=      5-min Rain = 0
KPMS 121655Z 22006KT 29/11 A3006 RMK A01 T02850114  RH  035%=      5-min Rain = 0
KPMS 121700Z 19002KT 28/11 A3006 RMK A01 T02830111  RH  035%=      5-min Rain = 0
KPMS 121705Z 14003G11KT 29/11 A3006 RMK A01 T02900113  RH  034%=      5-min Rain = 0
KPMS 121710Z 14003G8KT 29/11 A3006 RMK A01 T02920112  RH  033%=      5-min Rain = 0
KPMS 121715Z 19002KT 30/12 A3005 RMK A01 T02960116  RH  033%=      5-min Rain = 0
KPMS 121720Z 18006KT 30/11 A3005 RMK A01 T02960114  RH  033%=      5-min Rain = 0
KPMS 121725Z 15005KT 29/11 A3005 RMK A01 T02940112  RH  033%=      5-min Rain = 0
KPMS 121730Z 13004G9KT 30/11 A3005 RMK A01 T02980113  RH  033%=      5-min Rain = 0
KPMS 121735Z 10005KT 30/11 A3005 RMK A01 T03010113  RH  032%=      5-min Rain = 0
KPMS 121740Z 14006KT 30/11 A3005 RMK A01 T02980111  RH  032%=      5-min Rain = 0
KPMS 121745Z 12005KT 30/11 A3004 RMK A01 T02980112  RH  032%=      5-min Rain = 0
KPMS 121750Z 10005G11KT 30/12 A3004 RMK A01 T02980116  RH  033%=      5-min Rain = 0
KPMS 121755Z 09007KT 30/12 A3004 RMK A01 T03010118  RH  033%=      5-min Rain = 0
KPMS 121800Z 14007KT 30/12 A3004 RMK A01 T03010116  RH  033%=      5-min Rain = 0
KPMS 121805Z 14005KT 30/12 A3004 RMK A01 T02990115  RH  033%=      5-min Rain = 0
KPMS 121810Z 08006G13KT 30/12 A3004 RMK A01 T02990118  RH  033%=      5-min Rain = 0
KPMS 121815Z 12007KT 30/12 A3004 RMK A01 T03030117  RH  033%=      5-min Rain = 0
KPMS 121820Z 14005G10KT 30/12 A3004 RMK A01 T03000117  RH  033%=      5-min Rain = 0
KPMS 121825Z 13005G10KT 30/12 A3004 RMK A01 T03020118  RH  033%=      5-min Rain = 0
KPMS 121830Z 10007KT 31/12 A3003 RMK A01 T03080117  RH  032%=      5-min Rain = 0
KPMS 121835Z 12007KT 31/12 A3003 RMK A01 T03070117  RH  032%=      5-min Rain = 0
KPMS 121840Z 07006KT 31/12 A3003 RMK A01 T03050115  RH  032%=      5-min Rain = 0
KPMS 121845Z 05006KT 30/11 A3003 RMK A01 T03040112  RH  031%=      5-min Rain = 0
KPMS 121850Z 09005KT 30/11 A3003 RMK A01 T03040110  RH  031%=      5-min Rain = 0
KPMS 121855Z 11005KT 31/11 A3002 RMK A01 T03050112  RH  031%=      5-min Rain = 0
KPMS 121900Z 06006G14KT 31/11 A3002 RMK A01 T03070113  RH  031%=      5-min Rain = 0
KPMS 121905Z 07004KT 31/11 A3002 RMK A01 T03060113  RH  031%=      5-min Rain = 0
KPMS 121910Z 11007G12KT 31/11 A3002 RMK A01 T03110112  RH  030%=      5-min Rain = 0
KPMS 121915Z 08005G10KT 31/11 A3002 RMK A01 T03090113  RH  030%=      5-min Rain = 0
KPMS 121920Z 12007KT 31/11 A3002 RMK A01 T03100113  RH  030%=      5-min Rain = 0
KPMS 121925Z 11007G12KT 31/11 A3001 RMK A01 T03090112  RH  030%=      5-min Rain = 0
KPMS 121930Z 13005KT 31/11 A3001 RMK A01 T03080113  RH  031%=      5-min Rain = 0
KPMS 121935Z 15007KT 31/11 A3001 RMK A01 T03120111  RH  030%=      5-min Rain = 0
KPMS 121940Z 11006KT 31/11 A3001 RMK A01 T03120114  RH  030%=      5-min Rain = 0
KPMS 121945Z 11008KT 32/11 A3001 RMK A01 T03160114  RH  030%=      5-min Rain = 0
KPMS 121950Z 13006G12KT 31/11 A30 RMK A01 T03110111  RH  030%=      5-min Rain = 0
KPMS 121955Z 12003G8KT 31/11 A30 RMK A01 T03080111  RH  030%=      5-min Rain = 0
KPMS 122000Z 13004G12KT 31/11 A30 RMK A01 T03100111  RH  030%=      5-min Rain = 0
KPMS 122005Z 11006G11KT 31/11 A2999 RMK A01 T03140112  RH  029%=      5-min Rain = 0
KPMS 122010Z 07002KT 31/11 A2999 RMK A01 T03120111  RH  030%=      5-min Rain = 0
KPMS 122015Z 12005G12KT 31/11 A2999 RMK A01 T03140112  RH  029%=      5-min Rain = 0
KPMS 122020Z 14007G12KT 31/11 A2998 RMK A01 T03120111  RH  030%=      5-min Rain = 0
KPMS 122025Z 15007KT 31/11 A2998 RMK A01 T03120110  RH  029%=      5-min Rain = 0
KPMS 122030Z 13005G10KT 31/11 A2998 RMK A01 T03120110  RH  029%=      5-min Rain = 0
KPMS 122035Z 12007KT 31/11 A2998 RMK A01 T03120109  RH  029%=      5-min Rain = 0
KPMS 122040Z 14004KT 31/11 A2998 RMK A01 T03120109  RH  029%=      5-min Rain = 0
KPMS 122045Z 13005G11KT 31/11 A2998 RMK A01 T03130111  RH  029%=      5-min Rain = 0
KPMS 122050Z 10007KT 32/11 A2997 RMK A01 T03150112  RH  029%=      5-min Rain = 0
KPMS 122055Z 09006G11KT 31/11 A2997 RMK A01 T03130111  RH  029%=      5-min Rain = 0
KPMS 122100Z 14007G13KT 31/11 A2997 RMK A01 T03120110  RH  029%=      5-min Rain = 0
KPMS 122105Z 12008KT 32/11 A2997 RMK A01 T03150109  RH  029%=      5-min Rain = 0
KPMS 122110Z 11006KT 31/11 A2997 RMK A01 T03140110  RH  029%=      5-min Rain = 0
KPMS 122115Z 10007KT 31/11 A2996 RMK A01 T03140110  RH  029%=      5-min Rain = 0
KPMS 122120Z 11004G9KT 31/11 A2996 RMK A01 T03140108  RH  029%=      5-min Rain = 0
KPMS 122125Z 12005G10KT 32/11 A2996 RMK A01 T03150108  RH  029%=      5-min Rain = 0
KPMS 122130Z 10006KT 31/11 A2996 RMK A01 T03140109  RH  029%=      5-min Rain = 0
KPMS 122135Z 13008G14KT 32/11 A2996 RMK A01 T03170111  RH  029%=      5-min Rain = 0
KPMS 122140Z 14009KT 32/11 A2996 RMK A01 T03170111  RH  029%=      5-min Rain = 0
KPMS 122145Z 14008KT 32/11 A2996 RMK A01 T03150109  RH  029%=      5-min Rain = 0
KPMS 122150Z 10008G13KT 32/11 A2995 RMK A01 T03160112  RH  029%=      5-min Rain = 0
KPMS 122155Z 11008G13KT 32/11 A2995 RMK A01 T03170114  RH  029%=      5-min Rain = 0
KPMS 122200Z 10010KT 31/11 A2995 RMK A01 T03140112  RH  029%=      5-min Rain = 0
KPMS 122205Z 09007G13KT 31/11 A2995 RMK A01 T03110110  RH  030%=      5-min Rain = 0
KPMS 122210Z 11008KT 31/11 A2995 RMK A01 T03100110  RH  030%=      5-min Rain = 0
KPMS 122215Z 10008KT 31/11 A2995 RMK A01 T03100110  RH  030%=      5-min Rain = 0
KPMS 122220Z 09008KT 31/11 A2995 RMK A01 T03110112  RH  030%=      5-min Rain = 0
KPMS 122225Z 12009KT 31/11 A2995 RMK A01 T03100110  RH  030%=      5-min Rain = 0
KPMS 122230Z 12008G13KT 31/11 A2995 RMK A01 T03090111  RH  030%=      5-min Rain = 0
KPMS 122235Z 08008KT 31/11 A2995 RMK A01 T03080112  RH  030%=      5-min Rain = 0
KPMS 122240Z 10009KT 31/11 A2995 RMK A01 T03060111  RH  031%=      5-min Rain = 0
KPMS 122245Z 11008KT 31/11 A2995 RMK A01 T03050111  RH  031%=      5-min Rain = 0
KPMS 122250Z 10008G13KT 30/11 A2995 RMK A01 T03040111  RH  031%=      5-min Rain = 0
KPMS 122255Z 11011KT 30/11 A2995 RMK A01 T03030110  RH  031%=      5-min Rain = 0
KPMS 122300Z 12010KT 30/11 A2995 RMK A01 T03010109  RH  031%=      5-min Rain = 0
KPMS 122305Z 13008KT 30/11 A2994 RMK A01 T03010109  RH  031%=      5-min Rain = 0
KPMS 122310Z 13008KT 30/11 A2994 RMK A01 T03010110  RH  031%=      5-min Rain = 0
KPMS 122315Z 09008KT 30/11 A2994 RMK A01 T03000110  RH  031%=      5-min Rain = 0
KPMS 122320Z 10008KT 30/11 A2994 RMK A01 T02980110  RH  032%=      5-min Rain = 0
KPMS 122325Z 10008KT 30/11 A2994 RMK A01 T02980110  RH  032%=      5-min Rain = 0
KPMS 122330Z 11007KT 30/11 A2994 RMK A01 T02970108  RH  032%=      5-min Rain = 0
KPMS 122335Z 11006KT 30/11 A2994 RMK A01 T02970109  RH  032%=      5-min Rain = 0
KPMS 122340Z 10009KT 30/11 A2994 RMK A01 T02950109  RH  032%=      5-min Rain = 0
KPMS 122345Z 10009KT 29/11 A2994 RMK A01 T02920111  RH  033%=      5-min Rain = 0
KPMS 122350Z 10007KT 29/11 A2994 RMK A01 T02890112  RH  034%=      5-min Rain = 0
KPMS 122355Z 10007KT 29/11 A2994 RMK A01 T02880112  RH  034%=      5-min Rain = 0
KPMS 130000Z 10006KT 29/11 A2994 RMK A01 T02860113  RH  035%=      5-min Rain = 0
KPMS 130005Z 11007KT 28/12 A2994 RMK A01 T02830116  RH  036%=      5-min Rain = 0
KPMS 130010Z 11006KT 28/12 A2994 RMK A01 T02810116  RH  037%=      5-min Rain = 0
KPMS 130015Z 11006KT 28/12 A2994 RMK A01 T02780115  RH  037%=      5-min Rain = 0
KPMS 130020Z 10005KT 28/12 A2994 RMK A01 T02760115  RH  038%=      5-min Rain = 0
KPMS 130025Z 11006KT 27/12 A2994 RMK A01 T02700117  RH  039%=      5-min Rain = 0
KPMS 130030Z 11006KT 27/12 A2994 RMK A01 T02650118  RH  041%=      5-min Rain = 0
KPMS 130035Z 11006KT 26/12 A2994 RMK A01 T02600116  RH  041%=      5-min Rain = 0
KPMS 130040Z 11006KT 26/12 A2994 RMK A01 T02560115  RH  042%=      5-min Rain = 0
KPMS 130045Z 11006KT 25/12 A2994 RMK A01 T02500115  RH  044%=      5-min Rain = 0
KPMS 130050Z 12007KT 24/12 A2994 RMK A01 T02440115  RH  045%=      5-min Rain = 0
KPMS 130055Z 11007KT 24/12 A2994 RMK A01 T02410115  RH  046%=      5-min Rain = 0
KPMS 130100Z 11007KT 24/12 A2994 RMK A01 T02390115  RH  047%=      5-min Rain = 0
KPMS 130105Z 11007KT 23/12 A2994 RMK A01 T02340116  RH  048%=      5-min Rain = 0
KPMS 130110Z 12007KT 23/12 A2994 RMK A01 T02270117  RH  051%=      5-min Rain = 0
KPMS 130115Z 12006KT 22/12 A2994 RMK A01 T02230117  RH  052%=      5-min Rain = 0
KPMS 130120Z 12006KT 22/12 A2994 RMK A01 T02210118  RH  053%=      5-min Rain = 0
KPMS 130125Z 12006KT 22/12 A2994 RMK A01 T02200117  RH  053%=      5-min Rain = 0
KPMS 130130Z 12007KT 22/12 A2994 RMK A01 T02190116  RH  053%=      5-min Rain = 0
KPMS 130135Z 12006KT 22/12 A2994 RMK A01 T02190115  RH  053%=      5-min Rain = 0
KPMS 130140Z 12007KT 22/12 A2994 RMK A01 T02190116  RH  053%=      5-min Rain = 0
KPMS 130145Z 13007KT 22/12 A2994 RMK A01 T02180116  RH  053%=      5-min Rain = 0
KPMS 130150Z 13007KT 22/12 A2994 RMK A01 T02190117  RH  053%=      5-min Rain = 0
KPMS 130155Z 15007KT 21/12 A2995 RMK A01 T02140118  RH  055%=      5-min Rain = 0
KPMS 130200Z 14007KT 21/12 A2995 RMK A01 T02100117  RH  056%=      5-min Rain = 0
KPMS 130205Z 14007KT 21/12 A2995 RMK A01 T02090117  RH  057%=      5-min Rain = 0
KPMS 130210Z 14007KT 21/12 A2995 RMK A01 T02090117  RH  057%=      5-min Rain = 0
KPMS 130215Z 13007KT 21/12 A2995 RMK A01 T02100117  RH  056%=      5-min Rain = 0
KPMS 130220Z 13007KT 21/12 A2995 RMK A01 T02100117  RH  056%=      5-min Rain = 0
KPMS 130225Z 14006KT 21/12 A2995 RMK A01 T02090118  RH  057%=      5-min Rain = 0
KPMS 130230Z 13006KT 21/12 A2995 RMK A01 T02080118  RH  057%=      5-min Rain = 0
KPMS 130235Z 14006KT 21/12 A2996 RMK A01 T02050118  RH  059%=      5-min Rain = 0
KPMS 130240Z 15006KT 20/12 A2996 RMK A01 T01980118  RH  061%=      5-min Rain = 0
KPMS 130245Z 14006KT 19/12 A2996 RMK A01 T01930118  RH  063%=      5-min Rain = 0
KPMS 130250Z 14007KT 19/12 A2996 RMK A01 T01920117  RH  063%=      5-min Rain = 0
KPMS 130255Z 14007KT 19/12 A2996 RMK A01 T01920117  RH  063%=      5-min Rain = 0
KPMS 130300Z 14006KT 19/12 A2996 RMK A01 T01930117  RH  062%=      5-min Rain = 0
KPMS 130305Z 14006KT 19/12 A2996 RMK A01 T01900117  RH  063%=      5-min Rain = 0
KPMS 130310Z 15006KT 19/12 A2996 RMK A01 T01900117  RH  064%=      5-min Rain = 0
KPMS 130315Z 14006KT 19/12 A2996 RMK A01 T01880118  RH  065%=      5-min Rain = 0
KPMS 130320Z 15006KT 19/12 A2996 RMK A01 T01850117  RH  066%=      5-min Rain = 0
KPMS 130325Z 14006KT 18/12 A2996 RMK A01 T01840118  RH  067%=      5-min Rain = 0
KPMS 130330Z 15006KT 18/12 A2996 RMK A01 T01830118  RH  067%=      5-min Rain = 0
KPMS 130335Z 15006KT 18/12 A2996 RMK A01 T01820117  RH  067%=      5-min Rain = 0
KPMS 130340Z 14006KT 18/12 A2996 RMK A01 T01800117  RH  068%=      5-min Rain = 0
KPMS 130345Z 14005KT 18/12 A2996 RMK A01 T01780116  RH  068%=      5-min Rain = 0
KPMS 130350Z 15006KT 18/12 A2996 RMK A01 T01760117  RH  069%=      5-min Rain = 0
KPMS 130355Z 16006KT 18/12 A2996 RMK A01 T01780116  RH  068%=      5-min Rain = 0
KPMS 130400Z 16006KT 18/12 A2996 RMK A01 T01780115  RH  067%=      5-min Rain = 0
KPMS 130405Z 15007KT 17/11 A2996 RMK A01 T01740114  RH  069%=      5-min Rain = 0
KPMS 130410Z 15007KT 17/11 A2996 RMK A01 T01700114  RH  071%=      5-min Rain = 0
KPMS 130415Z 15007KT 17/12 A2996 RMK A01 T01700115  RH  071%=      5-min Rain = 0
KPMS 130420Z 15007KT 17/12 A2996 RMK A01 T01720115  RH  071%=      5-min Rain = 0
KPMS 130425Z 15007KT 17/12 A2996 RMK A01 T01720115  RH  070%=      5-min Rain = 0
KPMS 130430Z 14007KT 17/12 A2996 RMK A01 T01710115  RH  071%=      5-min Rain = 0
KPMS 130435Z 15007KT 17/12 A2996 RMK A01 T01710115  RH  071%=      5-min Rain = 0
KPMS 130440Z 14007KT 17/11 A2996 RMK A01 T01700114  RH  071%=      5-min Rain = 0
KPMS 130445Z 14007KT 17/11 A2996 RMK A01 T01700113  RH  070%=      5-min Rain = 0
KPMS 130450Z 14007KT 17/11 A2996 RMK A01 T01710113  RH  070%=      5-min Rain = 0
KPMS 130455Z 14006KT 17/11 A2996 RMK A01 T01710113  RH  070%=      5-min Rain = 0

Page generated in 0.0292 seconds.